createdAt,value
2019-04-25T00:01:48.958Z,24.87
2019-04-25T00:04:15.705Z,25.95
2019-04-25T00:06:42.868Z,27.02
2019-04-25T00:09:12.294Z,24.32
2019-04-25T00:11:39.297Z,24.82
2019-04-25T00:14:05.767Z,25.17
2019-04-25T00:16:34.018Z,28.05
2019-04-25T00:19:01.871Z,25.15
2019-04-25T00:21:31.789Z,24.80
2019-04-25T00:24:06.514Z,26.95
2019-04-25T00:26:34.970Z,26.40
2019-04-25T00:29:01.960Z,25.12
2019-04-25T00:31:29.785Z,23.52
2019-04-25T00:33:57.320Z,24.57
2019-04-25T00:36:23.569Z,24.15
2019-04-25T00:38:50.284Z,23.18
2019-04-25T00:41:17.961Z,24.85
2019-04-25T00:43:45.290Z,24.52
2019-04-25T00:46:11.590Z,26.27
2019-04-25T00:48:37.933Z,24.60
2019-04-25T00:51:04.381Z,22.05
2019-04-25T00:53:32.263Z,24.65
2019-04-25T00:55:58.668Z,24.35
2019-04-25T00:58:44.426Z,23.65
2019-04-25T01:01:25.713Z,22.75
2019-04-25T01:03:53.659Z,27.22
2019-04-25T01:06:21.966Z,25.43
2019-04-25T01:08:48.297Z,25.10
2019-04-25T01:11:14.741Z,23.52
2019-04-25T01:13:42.261Z,23.30
2019-04-25T01:16:08.873Z,24.77
2019-04-25T01:18:35.470Z,23.55
2019-04-25T01:21:04.467Z,24.02
2019-04-25T01:23:31.030Z,25.65
2019-04-25T01:25:57.592Z,26.37
2019-04-25T01:28:24.428Z,25.57
2019-04-25T01:30:50.875Z,27.00
2019-04-25T01:33:17.825Z,26.87
2019-04-25T01:35:58.093Z,25.50
2019-04-25T01:38:26.332Z,25.17
2019-04-25T01:40:55.473Z,24.15
2019-04-25T01:43:26.513Z,31.27
2019-04-25T01:45:54.863Z,23.75
2019-04-25T01:48:23.357Z,22.85
2019-04-25T01:50:50.521Z,26.20
2019-04-25T01:53:16.932Z,23.60
2019-04-25T01:55:53.779Z,24.63
2019-04-25T01:58:11.529Z,23.50
2019-04-25T02:00:50.381Z,22.95
2019-04-25T02:03:18.150Z,26.30
2019-04-25T02:05:44.686Z,24.30
2019-04-25T02:08:11.138Z,24.52
2019-04-25T02:10:37.822Z,23.62
2019-04-25T02:13:06.162Z,23.80
2019-04-25T02:15:33.471Z,21.35
2019-04-25T02:18:00.344Z,21.12
2019-04-25T02:20:27.185Z,25.40
2019-04-25T02:22:55.081Z,23.07
2019-04-25T02:25:22.998Z,24.63
2019-04-25T02:27:50.320Z,20.88
2019-04-25T02:30:17.181Z,21.73
2019-04-25T02:32:44.179Z,24.23
2019-04-25T02:35:11.065Z,27.22
2019-04-25T02:37:37.453Z,21.07
2019-04-25T02:40:08.136Z,20.65
2019-04-25T02:42:34.453Z,21.57
2019-04-25T02:45:08.168Z,21.50
2019-04-25T02:47:38.278Z,24.25
2019-04-25T02:50:24.604Z,27.98
2019-04-25T02:52:55.578Z,19.00
2019-04-25T02:55:30.759Z,23.27
2019-04-25T02:57:49.225Z,21.55
2019-04-25T03:00:24.624Z,22.13
2019-04-25T03:02:50.345Z,24.10
2019-04-25T03:05:16.786Z,23.75
2019-04-25T03:07:44.523Z,21.48
2019-04-25T03:10:11.377Z,23.80
2019-04-25T03:12:37.738Z,22.32
2019-04-25T03:15:07.931Z,21.20
2019-04-25T03:17:34.279Z,25.70
2019-04-25T03:20:08.093Z,24.32
2019-04-25T03:22:34.368Z,27.87
2019-04-25T03:25:02.032Z,23.62
2019-04-25T03:27:29.425Z,22.15
2019-04-25T03:29:55.879Z,27.32
2019-04-25T03:32:27.929Z,23.73
2019-04-25T03:34:50.476Z,27.37
2019-04-25T03:37:16.816Z,24.02
2019-04-25T03:39:43.633Z,26.15
2019-04-25T03:42:10.148Z,21.77
2019-04-25T03:44:36.637Z,26.52
2019-04-25T03:47:05.294Z,25.55
2019-04-25T03:49:31.388Z,26.65
2019-04-25T03:51:57.729Z,24.50
2019-04-25T03:54:24.073Z,25.37
2019-04-25T03:56:54.382Z,26.45
2019-04-25T03:59:18.561Z,25.25
2019-04-25T04:01:44.897Z,25.27
2019-04-25T04:04:11.353Z,25.88
2019-04-25T04:06:37.593Z,22.50
2019-04-25T04:09:06.463Z,21.33
2019-04-25T04:11:33.749Z,23.50
2019-04-25T04:14:00.226Z,24.63
2019-04-25T04:16:28.460Z,25.12
2019-04-25T04:18:55.109Z,25.55
2019-04-25T04:21:23.581Z,27.25
2019-04-25T04:23:52.003Z,24.72
2019-04-25T04:26:18.438Z,25.30
2019-04-25T04:28:44.992Z,24.30
2019-04-25T04:31:12.238Z,23.50
2019-04-25T04:33:39.584Z,25.48
2019-04-25T04:36:07.340Z,24.37
2019-04-25T04:38:34.324Z,25.88
2019-04-25T04:41:00.745Z,25.75
2019-04-25T04:43:27.094Z,22.80
2019-04-25T04:45:54.112Z,25.85
2019-04-25T04:48:20.499Z,24.02
2019-04-25T04:50:46.958Z,27.17
2019-04-25T04:53:14.927Z,27.17
2019-04-25T04:55:42.871Z,24.47
2019-04-25T04:58:10.377Z,20.23
2019-04-25T05:00:37.634Z,22.20
2019-04-25T05:03:06.022Z,21.97
2019-04-25T05:05:49.283Z,27.45
2019-04-25T05:08:26.506Z,24.67
2019-04-25T05:10:54.486Z,26.90
2019-04-25T05:13:21.018Z,28.07
2019-04-25T05:15:47.461Z,23.60
2019-04-25T05:18:15.763Z,25.82
2019-04-25T05:20:42.266Z,26.37
2019-04-25T05:23:09.141Z,24.05
2019-04-25T05:25:35.496Z,25.37
2019-04-25T05:28:03.526Z,25.08
2019-04-25T05:30:43.934Z,25.68
2019-04-25T05:33:10.170Z,24.98
2019-04-25T05:35:36.510Z,23.60
2019-04-25T05:38:03.441Z,34.45
2019-04-25T05:40:29.816Z,24.87
2019-04-25T05:42:58.152Z,30.43
2019-04-25T05:45:26.533Z,30.10
2019-04-25T05:47:54.106Z,27.85
2019-04-25T05:50:20.529Z,24.85
2019-04-25T05:52:46.889Z,25.57
2019-04-25T05:55:15.886Z,25.65
2019-04-25T05:57:47.338Z,21.73
2019-04-25T06:00:10.487Z,21.87
2019-04-25T06:02:36.962Z,27.30
2019-04-25T06:05:06.004Z,29.42
2019-04-25T06:07:33.287Z,25.05
2019-04-25T06:10:14.439Z,25.65
2019-04-25T06:12:45.616Z,26.40
2019-04-25T06:15:13.250Z,24.67
2019-04-25T06:17:44.166Z,22.35
2019-04-25T06:20:13.462Z,27.05
2019-04-25T06:22:59.687Z,22.73
2019-04-25T06:25:32.292Z,26.42
2019-04-25T06:28:03.777Z,25.70
2019-04-25T06:30:31.577Z,21.80
2019-04-25T06:32:58.123Z,24.05
2019-04-25T06:35:26.101Z,27.62
2019-04-25T06:37:53.660Z,24.02
2019-04-25T06:40:20.593Z,24.25
2019-04-25T06:42:46.918Z,20.32
2019-04-25T06:45:15.882Z,24.70
2019-04-25T06:47:49.769Z,21.85
2019-04-25T06:50:16.310Z,17.48
2019-04-25T06:52:43.917Z,23.62
2019-04-25T06:55:10.440Z,19.70
2019-04-25T06:57:36.778Z,20.88
2019-04-25T07:00:09.015Z,25.35
2019-04-25T07:02:35.477Z,19.40
2019-04-25T07:05:04.814Z,17.70
2019-04-25T07:07:31.132Z,20.32
2019-04-25T07:09:57.486Z,17.95
2019-04-25T07:12:29.293Z,20.37
2019-04-25T07:14:54.830Z,21.48
2019-04-25T07:17:21.273Z,17.77
2019-04-25T07:19:47.622Z,14.80
2019-04-25T07:22:15.500Z,17.73
2019-04-25T07:24:42.041Z,16.90
2019-04-25T07:27:14.782Z,16.25
2019-04-25T07:29:59.312Z,15.85
2019-04-25T07:32:30.782Z,12.63
2019-04-25T07:34:55.898Z,16.40
2019-04-25T07:37:22.325Z,16.02
2019-04-25T07:39:48.992Z,15.32
2019-04-25T07:42:15.341Z,15.10
2019-04-25T07:44:49.663Z,13.68
2019-04-25T07:47:09.729Z,20.92
2019-04-25T07:49:36.083Z,19.77
2019-04-25T07:52:03.607Z,19.40
2019-04-25T07:54:30.649Z,24.23
2019-04-25T07:56:56.908Z,22.82
2019-04-25T07:59:23.731Z,18.07
2019-04-25T08:01:50.109Z,24.23
2019-04-25T08:04:16.447Z,18.52
2019-04-25T08:06:44.297Z,19.12
2019-04-25T08:09:11.545Z,23.73
2019-04-25T08:11:38.303Z,21.00
2019-04-25T08:14:24.248Z,29.07
2019-04-25T08:16:53.775Z,26.93
2019-04-25T08:19:23.600Z,24.95
2019-04-25T08:21:50.117Z,22.90
2019-04-25T08:24:16.761Z,26.37
2019-04-25T08:26:43.696Z,27.65
2019-04-25T08:29:10.258Z,24.82
2019-04-25T08:31:37.692Z,24.75
2019-04-25T08:34:04.234Z,26.15
2019-04-25T08:36:31.191Z,22.77
2019-04-25T08:38:57.558Z,25.82
2019-04-25T08:41:24.003Z,23.25
2019-04-25T08:43:50.586Z,25.43
2019-04-25T08:46:17.025Z,23.70
2019-04-25T08:49:05.959Z,22.55
2019-04-25T08:51:40.062Z,20.55
2019-04-25T08:54:11.432Z,19.35
2019-04-25T08:56:37.857Z,18.92
2019-04-25T08:59:09.373Z,21.97
2019-04-25T09:01:46.677Z,27.65
2019-04-25T09:04:15.021Z,22.32
2019-04-25T09:06:42.261Z,24.15
2019-04-25T09:09:08.723Z,20.50
2019-04-25T09:11:37.987Z,24.87
2019-04-25T09:14:03.688Z,22.48
2019-04-25T09:16:30.265Z,20.75
2019-04-25T09:18:56.613Z,19.25
2019-04-25T09:21:23.777Z,23.45
2019-04-25T09:23:50.378Z,23.67
2019-04-25T09:26:16.762Z,21.15
2019-04-25T09:28:45.345Z,20.77
2019-04-25T09:31:11.577Z,28.12
2019-04-25T09:33:37.917Z,26.17
2019-04-25T09:36:04.894Z,24.37
2019-04-25T09:38:33.894Z,23.90
2019-04-25T09:41:00.813Z,23.95
2019-04-25T09:43:27.166Z,26.52
2019-04-25T09:45:58.166Z,23.52
2019-04-25T09:48:26.300Z,21.97
2019-04-25T09:51:13.543Z,23.40
2019-04-25T09:53:45.976Z,21.20
2019-04-25T09:56:11.732Z,26.00
2019-04-25T09:58:44.640Z,22.02
2019-04-25T10:01:15.045Z,26.00
2019-04-25T10:03:43.525Z,23.10
2019-04-25T10:06:13.396Z,28.05
2019-04-25T10:08:39.805Z,28.87
2019-04-25T10:11:06.359Z,26.02
2019-04-25T10:13:33.702Z,25.45
2019-04-25T10:16:05.772Z,28.85
2019-04-25T10:18:33.463Z,25.77
2019-04-25T10:21:00.351Z,26.52
2019-04-25T10:23:26.817Z,29.23
2019-04-25T10:25:53.802Z,25.62
2019-04-25T10:28:20.317Z,24.95
2019-04-25T10:30:46.980Z,25.02
2019-04-25T10:33:14.302Z,30.95
2019-04-25T10:35:47.926Z,26.77
2019-04-25T10:38:09.145Z,30.77
2019-04-25T10:40:35.698Z,27.10
2019-04-25T10:43:03.925Z,27.50
2019-04-25T10:45:30.413Z,29.05
2019-04-25T10:47:56.760Z,32.13
2019-04-25T10:50:23.874Z,30.23
2019-04-25T10:52:50.251Z,28.85
2019-04-25T10:55:16.797Z,27.25
2019-04-25T10:57:45.172Z,29.72
2019-04-25T11:00:24.577Z,32.50
2019-04-25T11:02:51.837Z,25.92
2019-04-25T11:05:18.878Z,33.40
2019-04-25T11:07:45.217Z,25.68
2019-04-25T11:10:14.035Z,28.98
2019-04-25T11:12:41.400Z,27.07
2019-04-25T11:15:08.905Z,30.97
2019-04-25T11:17:35.245Z,26.97
2019-04-25T11:20:03.599Z,24.87
2019-04-25T11:22:30.050Z,29.55
2019-04-25T11:24:56.397Z,25.90
2019-04-25T11:27:23.990Z,26.15
2019-04-25T11:29:50.741Z,29.45
2019-04-25T11:32:19.902Z,25.52
2019-04-25T11:34:47.283Z,27.93
2019-04-25T11:37:14.668Z,26.68
2019-04-25T11:39:46.080Z,29.18
2019-04-25T11:42:13.123Z,29.37
2019-04-25T11:44:41.040Z,32.33
2019-04-25T11:47:08.681Z,29.77
2019-04-25T11:49:35.225Z,32.23
2019-04-25T11:52:03.129Z,30.12
2019-04-25T11:54:29.945Z,33.23
2019-04-25T11:56:56.511Z,30.77
2019-04-25T11:59:23.525Z,28.85
2019-04-25T12:01:50.282Z,33.92
2019-04-25T12:04:16.734Z,28.15
2019-04-25T12:06:45.728Z,31.68
2019-04-25T12:09:11.433Z,30.45
2019-04-25T12:11:37.873Z,27.25
2019-04-25T12:14:04.395Z,28.20
2019-04-25T12:16:30.874Z,28.80
2019-04-25T12:18:57.213Z,33.25
2019-04-25T12:21:24.017Z,33.08
2019-04-25T12:23:50.758Z,27.73
2019-04-25T12:26:17.074Z,30.68
2019-04-25T12:28:43.325Z,26.40
2019-04-25T12:31:09.801Z,27.05
2019-04-25T12:33:37.979Z,25.50
2019-04-25T12:36:04.969Z,25.77
2019-04-25T12:38:31.413Z,24.37
2019-04-25T12:40:57.761Z,27.60
2019-04-25T12:43:26.014Z,25.45
2019-04-25T12:45:54.369Z,31.48
2019-04-25T12:48:20.709Z,25.92
2019-04-25T12:50:47.921Z,25.60
2019-04-25T12:53:14.424Z,25.55
2019-04-25T12:55:40.973Z,28.50
2019-04-25T12:58:07.317Z,27.75
2019-04-25T13:00:34.237Z,28.10
2019-04-25T13:03:01.386Z,29.32
2019-04-25T13:05:27.865Z,28.95
2019-04-25T13:07:57.085Z,29.80
2019-04-25T13:10:23.680Z,28.25
2019-04-25T13:12:50.215Z,26.68
2019-04-25T13:15:17.656Z,25.60
2019-04-25T13:17:43.937Z,26.33
2019-04-25T13:20:11.109Z,27.30
2019-04-25T13:22:37.540Z,28.98
2019-04-25T13:25:05.697Z,26.87
2019-04-25T13:27:40.077Z,27.42
2019-04-25T13:30:17.639Z,26.05
2019-04-25T13:32:51.953Z,29.98
2019-04-25T13:35:23.475Z,30.25
2019-04-25T13:37:49.861Z,27.25
2019-04-25T13:40:17.257Z,23.02
2019-04-25T13:42:44.671Z,23.83
2019-04-25T13:45:12.130Z,26.97
2019-04-25T13:47:38.457Z,25.05
2019-04-25T13:50:06.906Z,25.43
2019-04-25T13:52:35.732Z,24.67
2019-04-25T13:55:01.651Z,24.20
2019-04-25T13:57:28.197Z,22.75
2019-04-25T13:59:54.788Z,24.43
2019-04-25T14:02:21.285Z,21.50
2019-04-25T14:04:47.770Z,21.70
2019-04-25T14:07:14.109Z,19.70
2019-04-25T14:09:40.461Z,22.22
2019-04-25T14:12:07.808Z,20.48
2019-04-25T14:14:35.999Z,21.48
2019-04-25T14:17:10.241Z,20.72
2019-04-25T14:19:50.501Z,21.73
2019-04-25T14:22:16.852Z,18.65
2019-04-25T14:24:44.055Z,20.50
2019-04-25T14:27:11.332Z,21.82
2019-04-25T14:29:37.692Z,18.07
2019-04-25T14:32:06.144Z,18.75
2019-04-25T14:34:33.801Z,17.17
2019-04-25T14:37:00.261Z,18.05
2019-04-25T14:39:27.474Z,21.30
2019-04-25T14:41:53.789Z,19.62
2019-04-25T14:44:20.249Z,16.27
2019-04-25T14:46:46.605Z,18.23
2019-04-25T14:49:13.286Z,18.80
2019-04-25T14:51:39.753Z,19.65
2019-04-25T14:54:08.156Z,17.07
2019-04-25T14:56:39.437Z,16.50
2019-04-25T14:59:05.933Z,16.77
2019-04-25T15:01:44.055Z,21.02
2019-04-25T15:04:00.421Z,16.85
2019-04-25T15:06:27.656Z,19.05
2019-04-25T15:08:54.148Z,19.30
2019-04-25T15:11:20.607Z,18.55
2019-04-25T15:13:46.861Z,15.55
2019-04-25T15:16:13.165Z,20.50
2019-04-25T15:18:46.636Z,18.90
2019-04-25T15:21:07.765Z,20.72
2019-04-25T15:23:34.105Z,18.17
2019-04-25T15:26:00.546Z,17.57
2019-04-25T15:28:27.554Z,20.27
2019-04-25T15:30:53.858Z,15.55
2019-04-25T15:33:20.313Z,17.42
2019-04-25T15:35:48.762Z,16.25
2019-04-25T15:38:24.587Z,19.85
2019-04-25T15:40:52.953Z,20.43
2019-04-25T15:43:27.638Z,21.02
2019-04-25T15:46:13.735Z,18.32
2019-04-25T15:48:40.705Z,18.62
2019-04-25T15:51:07.145Z,17.87
2019-04-25T15:53:33.595Z,18.98
2019-04-25T15:56:00.858Z,16.07
2019-04-25T15:58:27.614Z,15.20
2019-04-25T16:00:54.236Z,17.73
2019-04-25T16:03:20.685Z,17.55
2019-04-25T16:05:58.757Z,14.28
2019-04-25T16:08:26.619Z,17.82
2019-04-25T16:10:57.179Z,15.60
2019-04-25T16:13:23.477Z,14.90
2019-04-25T16:15:49.722Z,13.25
2019-04-25T16:18:16.387Z,15.40
2019-04-25T16:20:42.709Z,18.45
2019-04-25T16:23:09.677Z,16.30
2019-04-25T16:25:36.124Z,17.42
2019-04-25T16:28:02.645Z,18.00
2019-04-25T16:30:31.001Z,13.48
2019-04-25T16:32:57.441Z,19.02
2019-04-25T16:35:23.789Z,15.00
2019-04-25T16:37:50.233Z,15.18
2019-04-25T16:40:16.882Z,18.80
2019-04-25T16:42:43.232Z,16.80
2019-04-25T16:45:10.089Z,14.40
2019-04-25T16:47:37.346Z,16.12
2019-04-25T16:50:05.124Z,15.18
2019-04-25T16:52:31.766Z,15.85
2019-04-25T16:55:01.456Z,16.35
2019-04-25T16:57:27.777Z,14.93
2019-04-25T16:59:54.229Z,14.45
2019-04-25T17:02:32.409Z,17.57
2019-04-25T17:04:49.828Z,15.53
2019-04-25T17:07:19.526Z,16.90
2019-04-25T17:09:48.629Z,13.85
2019-04-25T17:12:16.262Z,15.35
2019-04-25T17:14:49.461Z,17.23
2019-04-25T17:17:23.422Z,13.70
2019-04-25T17:20:08.224Z,14.45
2019-04-25T17:22:35.114Z,18.30
2019-04-25T17:25:01.619Z,15.10
2019-04-25T17:27:27.962Z,16.52
2019-04-25T17:29:54.687Z,15.50
2019-04-25T17:32:50.323Z,16.48
2019-04-25T17:38:27.361Z,14.28
2019-04-25T17:40:54.178Z,13.95
2019-04-25T17:43:20.621Z,18.12
2019-04-25T17:45:46.893Z,13.85
2019-04-25T17:48:13.297Z,16.62
2019-04-25T17:50:39.785Z,17.32
2019-04-25T17:53:06.241Z,19.52
2019-04-25T17:55:33.349Z,15.20
2019-04-25T17:57:59.845Z,16.45
2019-04-25T18:00:33.923Z,17.55
2019-04-25T18:03:00.477Z,14.95
2019-04-25T18:05:27.020Z,16.32
2019-04-25T18:07:53.485Z,18.62
2019-04-25T18:10:19.841Z,13.80
2019-04-25T18:12:46.182Z,18.80
2019-04-25T18:15:14.721Z,13.13
2019-04-25T18:17:41.066Z,16.40
2019-04-25T18:20:09.405Z,17.57
2019-04-25T18:22:49.581Z,14.55
2019-04-25T18:25:17.822Z,16.55
2019-04-25T18:27:55.081Z,15.68
2019-04-25T18:30:21.529Z,18.30
2019-04-25T18:32:55.657Z,14.28
2019-04-25T18:35:24.016Z,15.83
2019-04-25T18:37:52.257Z,17.15
2019-04-25T18:40:23.436Z,15.68
2019-04-25T18:42:51.628Z,16.25
2019-04-25T18:45:19.974Z,17.25
2019-04-25T18:47:46.686Z,17.95
2019-04-25T18:50:15.024Z,17.52
2019-04-25T18:52:47.103Z,17.05
2019-04-25T18:55:31.689Z,19.12
2019-04-25T18:58:16.345Z,16.17
2019-04-25T19:00:45.739Z,25.35
2019-04-25T19:03:22.732Z,18.27
2019-04-25T19:06:02.197Z,16.70
2019-04-25T19:08:28.635Z,18.77
2019-04-25T19:10:55.136Z,18.70
2019-04-25T19:13:21.545Z,19.55
2019-04-25T19:15:47.901Z,18.15
2019-04-25T19:18:14.141Z,16.42
2019-04-25T19:20:41.644Z,17.60
2019-04-25T19:23:07.940Z,19.90
2019-04-25T19:25:34.301Z,18.65
2019-04-25T19:28:00.872Z,18.02
2019-04-25T19:30:27.305Z,16.85
2019-04-25T19:32:53.658Z,16.15
2019-04-25T19:35:20.009Z,16.35
2019-04-25T19:37:46.455Z,16.17
2019-04-25T19:40:26.637Z,16.67
2019-04-25T19:43:00.845Z,15.83
2019-04-25T19:45:27.281Z,18.07
2019-04-25T19:47:53.673Z,20.80
2019-04-25T19:50:25.067Z,17.05
2019-04-25T19:52:52.162Z,16.93
2019-04-25T19:55:18.694Z,15.70
2019-04-25T19:57:46.105Z,15.15
2019-04-25T20:00:16.054Z,19.00
2019-04-25T20:02:44.586Z,19.62
2019-04-25T20:05:24.546Z,18.23
2019-04-25T20:07:53.438Z,19.87
2019-04-25T20:10:31.317Z,17.17
2019-04-25T20:12:57.690Z,17.10
2019-04-25T20:15:24.145Z,16.77
2019-04-25T20:17:50.603Z,14.93
2019-04-25T20:20:24.092Z,17.52
2019-04-25T20:22:50.426Z,16.00
2019-04-25T20:25:16.880Z,18.37
2019-04-25T20:27:44.249Z,18.30
2019-04-25T20:30:11.757Z,17.80
2019-04-25T20:32:38.096Z,19.45
2019-04-25T20:35:04.510Z,15.30
2019-04-25T20:37:30.937Z,17.30
2019-04-25T20:39:57.285Z,14.95
2019-04-25T20:42:23.541Z,17.55
2019-04-25T20:44:49.785Z,18.65
2019-04-25T20:47:16.215Z,16.52
2019-04-25T20:49:42.476Z,16.95
2019-04-25T20:52:08.909Z,17.82
2019-04-25T20:54:35.354Z,21.50
2019-04-25T20:57:01.827Z,17.10
2019-04-25T20:59:28.171Z,19.32
2019-04-25T21:01:55.590Z,19.60
2019-04-25T21:04:40.773Z,17.52
2019-04-25T21:07:07.469Z,17.98
2019-04-25T21:09:33.870Z,18.17
2019-04-25T21:12:00.340Z,17.87
2019-04-25T21:14:28.577Z,19.25
2019-04-25T21:16:59.455Z,16.05
2019-04-25T21:19:27.741Z,19.07
2019-04-25T21:21:54.236Z,19.65
2019-04-25T21:24:20.438Z,16.95
2019-04-25T21:26:46.680Z,17.48
2019-04-25T21:29:13.215Z,18.10
2019-04-25T21:31:39.713Z,19.92
2019-04-25T21:34:06.056Z,20.10
2019-04-25T21:36:32.697Z,21.02
2019-04-25T21:38:59.601Z,22.93
2019-04-25T21:41:44.360Z,17.23
2019-04-25T21:44:11.006Z,22.07
2019-04-25T21:46:37.348Z,18.92
2019-04-25T21:49:03.905Z,16.73
2019-04-25T21:51:30.448Z,22.13
2019-04-25T21:53:57.309Z,20.23
2019-04-25T21:56:23.876Z,19.15
2019-04-25T21:58:50.222Z,19.37
2019-04-25T22:01:19.912Z,19.12
2019-04-25T22:03:46.169Z,18.48
2019-04-25T22:06:12.846Z,22.15
2019-04-25T22:08:39.204Z,19.73
2019-04-25T22:11:05.670Z,24.35
2019-04-25T22:13:32.442Z,20.30
2019-04-25T22:15:59.600Z,23.47
2019-04-25T22:18:26.420Z,20.15
2019-04-25T22:20:52.762Z,23.50
2019-04-25T22:23:19.141Z,20.90
2019-04-25T22:25:45.773Z,20.00
2019-04-25T22:28:12.147Z,19.17
2019-04-25T22:30:39.884Z,19.85
2019-04-25T22:33:10.785Z,24.55
2019-04-25T22:35:41.916Z,21.90
2019-04-25T22:38:08.549Z,22.95
2019-04-25T22:40:34.901Z,19.27
2019-04-25T22:43:01.735Z,26.37
2019-04-25T22:45:28.193Z,20.40
2019-04-25T22:47:54.741Z,22.52
2019-04-25T22:50:21.341Z,24.43
2019-04-25T22:52:47.777Z,25.08
2019-04-25T22:55:14.241Z,24.67
2019-04-25T22:57:40.781Z,22.05
2019-04-25T23:00:09.524Z,23.18
2019-04-25T23:02:37.869Z,24.32
2019-04-25T23:05:12.077Z,22.77
2019-04-25T23:07:34.664Z,21.97
2019-04-25T23:10:01.926Z,24.65
2019-04-25T23:12:29.268Z,24.37
2019-04-25T23:14:55.700Z,25.43
2019-04-25T23:17:21.957Z,24.07
2019-04-25T23:19:48.501Z,22.70
2019-04-25T23:22:14.945Z,22.35
2019-04-25T23:24:43.206Z,22.70
2019-04-25T23:27:23.469Z,24.57
2019-04-25T23:29:49.825Z,23.45
2019-04-25T23:32:16.374Z,24.23
2019-04-25T23:34:42.721Z,25.20
2019-04-25T23:37:09.077Z,23.67
2019-04-25T23:39:35.717Z,25.12
2019-04-25T23:42:02.280Z,23.80
2019-04-25T23:44:28.811Z,25.43
2019-04-25T23:46:55.437Z,23.15
2019-04-25T23:49:21.764Z,25.75
2019-04-25T23:51:48.376Z,24.15
2019-04-25T23:54:15.086Z,25.72
2019-04-25T23:56:41.506Z,23.67
2019-04-25T23:59:08.842Z,23.27
